Time;durP1;ratioP1;P1;durP2;ratioP2;P2;SDS_P1;SDS_P2;PMS_P1;PMS_P2;Temp;Humidity;BMP_temperature;BMP_pressure;BME280_temperature;BME280_humidity;BME280_pressure;Samples;Min_cycle;Max_cycle;Signal;HPM_P1;HPM_P2
2022/10/05 00:00:18;;;;;;;3.10;1.58;;;14.40;99.90;;;;;;5027165;28;20022;-80
2022/10/05 00:02:45;;;;;;;3.23;1.53;;;14.40;99.90;;;;;;5027277;28;20021;-81
2022/10/05 00:05:31;;;;;;;3.22;1.25;;;14.40;99.90;;;;;;5025347;28;20417;-80
2022/10/05 00:08:09;;;;;;;2.97;1.65;;;14.40;99.90;;;;;;5026035;28;20021;-81
2022/10/05 00:10:35;;;;;;;3.60;1.90;;;14.40;99.90;;;;;;5026932;28;20112;-81
2022/10/05 00:13:01;;;;;;;2.47;2.03;;;14.50;99.90;;;;;;5026739;28;20417;-80
2022/10/05 00:15:28;;;;;;;3.33;2.00;;;14.40;99.90;;;;;;5024785;28;20025;-81
2022/10/05 00:17:54;;;;;;;3.45;1.58;;;14.40;99.90;;;;;;5025263;28;20037;-81
2022/10/05 00:20:23;;;;;;;2.55;1.40;;;14.40;99.90;;;;;;5008635;28;20045;-81
2022/10/05 00:22:59;;;;;;;3.53;1.45;;;14.50;99.90;;;;;;5026637;28;20025;-82
2022/10/05 00:25:25;;;;;;;4.30;1.70;;;14.40;99.90;;;;;;5041544;28;20034;-81
2022/10/05 00:27:58;;;;;;;2.50;1.85;;;14.50;99.90;;;;;;5026620;28;20052;-81
2022/10/05 00:30:29;;;;;;;2.88;1.55;;;14.50;99.90;;;;;;5026589;28;20060;-81
2022/10/05 00:32:56;;;;;;;3.17;1.77;;;14.50;99.90;;;;;;5025461;28;20040;-81
2022/10/05 00:35:21;;;;;;;2.40;1.48;;;14.50;99.90;;;;;;5043684;28;20026;-82
2022/10/05 00:37:52;;;;;;;3.38;2.03;;;14.50;99.90;;;;;;5029128;28;20048;-81
2022/10/05 00:40:42;;;;;;;3.05;2.00;;;14.50;99.90;;;;;;5045377;28;20049;-81
2022/10/05 00:43:41;;;;;;;3.58;2.00;;;14.40;99.90;;;;;;5030497;28;20042;-81
2022/10/05 00:46:16;;;;;;;3.00;1.77;;;14.40;99.90;;;;;;5045775;28;20029;-81
2022/10/05 00:49:31;;;;;;;2.08;1.33;;;14.40;99.90;;;;;;5030414;28;20033;-82
2022/10/05 00:52:19;;;;;;;2.75;1.50;;;14.40;99.90;;;;;;5026980;28;20041;-83
2022/10/05 00:55:14;;;;;;;2.10;1.20;;;14.50;99.90;;;;;;5030882;28;20170;-81
2022/10/05 00:57:53;;;;;;;2.33;1.38;;;14.40;99.90;;;;;;5030326;28;20029;-81
2022/10/05 01:00:23;;;;;;;2.72;1.30;;;14.40;99.90;;;;;;5008366;28;20041;-81
2022/10/05 01:03:03;;;;;;;2.75;1.20;;;14.40;99.90;;;;;;5029042;28;20549;-81
2022/10/05 01:05:42;;;;;;;3.97;2.00;;;14.40;99.90;;;;;;5011839;28;20038;-81
2022/10/05 01:08:08;;;;;;;2.63;1.45;;;14.40;99.90;;;;;;5028173;28;20064;-82
2022/10/05 01:10:55;;;;;;;3.70;1.67;;;14.40;99.90;;;;;;5028661;28;20053;-82
2022/10/05 01:13:40;;;;;;;5.82;2.00;;;14.40;99.90;;;;;;5027876;28;20041;-81
2022/10/05 01:16:16;;;;;;;5.30;2.70;;;14.40;99.90;;;;;;5011464;28;20047;-81
2022/10/05 01:19:09;;;;;;;5.72;3.25;;;14.40;99.90;;;;;;5029015;28;20045;-81
2022/10/05 01:21:45;;;;;;;4.22;2.78;;;14.40;99.90;;;;;;5029698;28;20021;-82
2022/10/05 01:24:38;;;;;;;5.18;2.08;;;14.40;99.90;;;;;;5011422;28;20034;-82
2022/10/05 01:27:35;;;;;;;3.92;2.50;;;14.40;99.90;;;;;;5029259;28;20096;-81
2022/10/05 01:30:13;;;;;;;3.42;2.03;;;14.40;99.90;;;;;;5027880;28;20025;-81
2022/10/05 01:32:57;;;;;;;4.28;2.85;;;14.40;99.90;;;;;;5027928;28;20053;-82
2022/10/05 01:35:47;;;;;;;2.63;1.48;;;14.30;99.90;;;;;;5027326;28;20442;-81
2022/10/05 01:38:36;;;;;;;4.95;2.55;;;14.30;99.90;;;;;;5028527;28;20034;-82
2022/10/05 01:41:30;;;;;;;5.05;1.98;;;14.30;99.90;;;;;;5025721;28;20021;-81
2022/10/05 01:44:20;;;;;;;4.38;1.80;;;14.30;99.90;;;;;;4989542;28;20125;-81
2022/10/05 01:47:20;;;;;;;3.35;1.80;;;14.20;99.90;;;;;;4988039;28;20315;-81
2022/10/05 01:50:10;;;;;;;3.20;1.90;;;14.20;99.90;;;;;;4986579;28;20034;-82
2022/10/05 01:52:56;;;;;;;3.15;2.08;;;14.10;99.90;;;;;;4989613;28;20026;-80
2022/10/05 01:55:39;;;;;;;4.40;2.75;;;14.10;99.90;;;;;;4978536;28;20037;-83
2022/10/05 01:58:25;;;;;;;3.17;2.28;;;14.10;99.90;;;;;;4987802;28;20438;-81
2022/10/05 02:00:58;;;;;;;4.43;2.47;;;14.00;99.90;;;;;;4988600;28;20041;-81
2022/10/05 02:03:29;;;;;;;4.28;2.78;;;14.00;99.90;;;;;;4987007;28;20030;-81
2022/10/05 02:06:00;;;;;;;4.57;2.90;;;14.00;99.90;;;;;;4989515;28;20034;-81
2022/10/05 02:08:31;;;;;;;5.60;3.33;;;13.90;99.90;;;;;;4987173;28;20113;-81
2022/10/05 02:11:04;;;;;;;5.72;2.42;;;13.90;99.90;;;;;;4988760;28;20033;-81
2022/10/05 02:13:43;;;;;;;4.95;2.20;;;13.90;99.90;;;;;;4991139;28;20026;-81
2022/10/05 02:16:19;;;;;;;2.97;1.63;;;13.90;99.90;;;;;;4987592;28;20053;-81
2022/10/05 02:18:59;;;;;;;3.05;1.77;;;13.90;99.90;;;;;;4989627;28;20037;-81
2022/10/05 02:21:26;;;;;;;2.80;1.55;;;13.90;99.90;;;;;;4988710;28;20034;-81
2022/10/05 02:23:56;;;;;;;3.30;2.35;;;13.90;99.90;;;;;;4988689;28;20034;-82
2022/10/05 02:26:23;;;;;;;;;;;13.90;99.90;;;;;;5004123;28;20409;-81
2022/10/05 02:28:58;;;;;;;3.10;1.83;;;13.90;99.90;;;;;;4988659;28;19910;-82
2022/10/05 02:32:05;;;;;;;2.75;2.13;;;13.90;99.90;;;;;;4986505;28;20027;-81
2022/10/05 02:34:38;;;;;;;3.10;2.03;;;13.90;99.90;;;;;;4988734;28;20597;-80
2022/10/05 02:37:21;;;;;;;2.90;1.83;;;13.90;99.90;;;;;;5003646;28;20044;-81
2022/10/05 02:40:09;;;;;;;2.75;1.58;;;13.90;99.90;;;;;;4988044;28;20046;-81
2022/10/05 02:42:35;;;;;;;4.00;2.08;;;13.90;99.90;;;;;;5023594;28;20048;-81
2022/10/05 02:45:33;;;;;;;4.55;2.67;;;13.80;99.90;;;;;;5028312;28;20416;-81
2022/10/05 02:48:16;;;;;;;3.55;2.10;;;13.80;99.90;;;;;;5028828;28;20032;-82
2022/10/05 02:51:01;;;;;;;4.78;1.80;;;13.80;99.90;;;;;;5028247;28;20056;-80
2022/10/05 02:53:43;;;;;;;3.33;2.22;;;13.80;99.90;;;;;;5044154;28;20037;-82
2022/10/05 02:56:14;;;;;;;4.18;2.58;;;13.80;99.90;;;;;;5044622;28;20551;-81
2022/10/05 02:58:58;;;;;;;4.72;3.17;;;13.80;99.90;;;;;;5018241;28;20090;-81
2022/10/05 03:01:38;;;;;;;4.28;2.58;;;13.80;99.90;;;;;;5045243;28;20045;-81
2022/10/05 03:04:30;;;;;;;5.75;3.22;;;13.80;99.90;;;;;;5028241;28;20041;-81
2022/10/05 03:07:08;;;;;;;4.70;3.42;;;13.80;99.90;;;;;;4995323;28;20031;-81
2022/10/05 03:09:56;;;;;;;4.03;2.53;;;13.80;99.90;;;;;;4988023;28;20018;-81
2022/10/05 03:12:22;;;;;;;2.58;1.85;;;13.80;99.90;;;;;;5000438;28;20412;-81
2022/10/05 03:15:17;;;;;;;2.58;2.03;;;13.70;99.90;;;;;;4988546;28;20113;-81
2022/10/05 03:18:01;;;;;;;3.75;2.72;;;13.70;99.90;;;;;;4986458;28;20149;-82
2022/10/05 03:20:36;;;;;;;3.55;2.33;;;13.70;99.90;;;;;;4987078;28;20030;-82
2022/10/05 03:23:06;;;;;;;3.13;2.38;;;13.70;99.90;;;;;;4987009;28;20034;-81
2022/10/05 03:25:42;;;;;;;5.70;2.90;;;13.80;99.90;;;;;;4971332;28;20439;-82
2022/10/05 03:28:20;;;;;;;3.78;3.15;;;13.80;99.90;;;;;;4984905;28;20743;-82
2022/10/05 03:31:03;;;;;;;4.25;2.08;;;13.80;99.90;;;;;;4991948;28;20584;-82
2022/10/05 03:33:42;;;;;;;4.55;2.92;;;13.80;99.90;;;;;;4999561;28;20029;-81
2022/10/05 03:36:16;;;;;;;3.17;2.50;;;13.80;99.90;;;;;;4970377;28;20038;-81
2022/10/05 03:38:57;;;;;;;3.53;2.17;;;13.80;99.90;;;;;;4985405;28;20125;-81
2022/10/05 03:41:35;;;;;;;5.22;3.70;;;13.90;99.90;;;;;;5002127;28;20498;-81
2022/10/05 03:44:33;;;;;;;4.18;3.05;;;13.90;99.90;;;;;;5025521;28;20108;-81
2022/10/05 03:47:22;;;;;;;6.43;4.90;;;13.90;99.90;;;;;;5026794;28;20064;-81
2022/10/05 03:49:58;;;;;;;6.23;3.70;;;13.90;99.90;;;;;;5009656;28;20486;-80
2022/10/05 03:52:40;;;;;;;3.10;2.30;;;13.90;99.90;;;;;;5025560;28;20030;-81
2022/10/05 03:55:18;;;;;;;5.38;3.35;;;13.90;99.90;;;;;;5042703;28;20101;-81
2022/10/05 03:57:45;;;;;;;5.13;3.15;;;13.90;99.90;;;;;;5027240;28;20036;-80
2022/10/05 04:00:18;;;;;;;5.60;3.40;;;13.90;99.90;;;;;;5008831;28;20030;-81
2022/10/05 04:03:03;;;;;;;5.60;3.28;;;13.90;99.90;;;;;;5042247;28;20052;-81
2022/10/05 04:05:40;;;;;;;3.92;2.58;;;13.90;99.90;;;;;;5007751;28;20030;-82
2022/10/05 04:08:26;;;;;;;3.95;2.63;;;13.90;99.90;;;;;;5027299;28;20025;-81
2022/10/05 04:10:56;;;;;;;4.55;2.90;;;13.90;99.90;;;;;;5028031;28;20047;-82
2022/10/05 04:13:33;;;;;;;6.22;4.10;;;13.90;99.90;;;;;;5028933;28;20036;-81
2022/10/05 04:16:13;;;;;;;6.28;3.75;;;13.90;99.90;;;;;;5029292;28;20075;-81
2022/10/05 04:18:50;;;;;;;6.75;5.43;;;13.90;99.90;;;;;;5046120;28;20034;-81
2022/10/05 04:21:31;;;;;;;5.20;3.30;;;13.90;99.90;;;;;;5028181;28;20080;-81
2022/10/05 04:23:57;;;;;;;4.95;3.28;;;13.90;99.90;;;;;;5045815;28;20021;-80
2022/10/05 04:26:33;;;;;;;4.53;2.58;;;13.90;99.90;;;;;;5044866;28;20041;-82
2022/10/05 04:29:26;;;;;;;4.82;3.42;;;13.90;99.90;;;;;;5012938;28;20499;-80
2022/10/05 04:32:14;;;;;;;4.70;4.00;;;13.90;99.90;;;;;;5029070;28;20299;-81
2022/10/05 04:35:13;;;;;;;5.82;4.28;;;13.90;99.90;;;;;;5045857;28;20524;-81
2022/10/05 04:38:04;;;;;;;7.10;3.85;;;14.00;99.90;;;;;;5044972;28;20034;-82
2022/10/05 04:40:44;;;;;;;5.53;3.80;;;13.90;99.90;;;;;;5007402;28;20036;-81
2022/10/05 04:43:26;;;;;;;4.93;3.05;;;13.90;99.90;;;;;;5028253;28;20052;-81
2022/10/05 04:46:17;;;;;;;5.30;3.58;;;13.90;99.90;;;;;;5012104;28;20390;-82
2022/10/05 04:49:25;;;;;;;4.82;3.20;;;13.90;99.90;;;;;;5031621;28;20017;-81
2022/10/05 04:52:10;;;;;;;4.53;2.97;;;13.90;99.90;;;;;;5014472;28;20485;-81
2022/10/05 04:55:21;;;;;;;4.70;3.58;;;13.90;99.90;;;;;;5028693;28;20029;-82
2022/10/05 04:58:02;;;;;;;4.18;3.17;;;13.90;99.90;;;;;;5028722;28;20037;-81
2022/10/05 05:00:35;;;;;;;3.72;2.78;;;13.90;99.90;;;;;;5043827;28;20026;-81
2022/10/05 05:03:37;;;;;;;4.35;2.83;;;13.90;99.90;;;;;;5026856;28;20041;-81
2022/10/05 05:06:18;;;;;;;3.15;2.20;;;13.90;99.90;;;;;;4991449;28;20040;-81
2022/10/05 05:09:25;;;;;;;4.45;1.98;;;13.90;99.90;;;;;;4991434;28;20085;-82
2022/10/05 05:12:22;;;;;;;3.42;2.40;;;13.90;99.90;;;;;;5008026;28;20031;-81
2022/10/05 05:15:20;;;;;;;4.47;2.58;;;13.90;99.90;;;;;;4970081;28;20034;-83
2022/10/05 05:18:05;;;;;;;2.30;1.40;;;13.90;99.90;;;;;;5005744;28;20038;-83
2022/10/05 05:21:14;;;;;;;3.15;1.45;;;13.80;99.90;;;;;;4975301;28;20026;-82
2022/10/05 05:23:49;;;;;;;3.42;2.10;;;13.80;99.90;;;;;;4989580;28;20034;-82
2022/10/05 05:26:56;;;;;;;4.53;2.80;;;13.80;99.90;;;;;;4989619;28;20030;-81
2022/10/05 05:29:57;;;;;;;5.25;3.83;;;13.80;99.90;;;;;;4948364;29;20047;-83
2022/10/05 05:32:57;;;;;;;4.63;2.92;;;13.80;99.90;;;;;;4931321;29;20039;-82
2022/10/05 05:35:53;;;;;;;5.60;3.97;;;13.80;99.90;;;;;;4945751;29;20392;-82
2022/10/05 05:38:46;;;;;;;2.50;1.63;;;13.80;99.90;;;;;;4944985;29;20054;-82
2022/10/05 05:41:14;;;;;;;4.15;2.55;;;13.80;99.90;;;;;;4951436;28;20073;-82
2022/10/05 05:44:02;;;;;;;4.30;3.30;;;13.80;99.90;;;;;;4950888;28;20038;-82
2022/10/05 05:46:49;;;;;;;3.28;2.58;;;13.80;99.90;;;;;;4951682;28;20046;-82
2022/10/05 05:49:34;;;;;;;6.30;3.75;;;13.80;99.90;;;;;;4948465;28;20031;-81
2022/10/05 05:52:09;;;;;;;5.85;3.90;;;13.80;99.90;;;;;;4966729;28;20550;-83
2022/10/05 05:54:37;;;;;;;5.38;3.95;;;13.70;99.90;;;;;;4950641;28;20031;-81
2022/10/05 05:57:15;;;;;;;6.05;4.00;;;13.80;99.90;;;;;;4967631;28;20169;-82
2022/10/05 06:00:06;;;;;;;5.72;3.25;;;13.80;99.90;;;;;;4933555;28;20039;-82
2022/10/05 06:03:02;;;;;;;4.40;3.35;;;13.80;99.90;;;;;;4945970;28;20196;-81
2022/10/05 06:05:37;;;;;;;4.50;3.72;;;13.80;99.90;;;;;;5021828;28;20038;-82
2022/10/05 06:08:47;;;;;;;4.50;3.03;;;13.80;99.90;;;;;;5021827;28;20129;-82
2022/10/05 06:11:37;;;;;;;6.38;3.83;;;13.80;99.90;;;;;;4993270;28;20054;-83
2022/10/05 06:14:21;;;;;;;4.88;2.40;;;13.80;99.90;;;;;;5006436;28;20486;-83
2022/10/05 06:17:12;;;;;;;3.53;3.13;;;13.80;99.90;;;;;;5023478;28;20088;-83
2022/10/05 06:19:39;;;;;;;5.13;3.45;;;13.80;99.90;;;;;;4996266;28;20030;-82
2022/10/05 06:22:26;;;;;;;4.57;3.40;;;13.90;99.90;;;;;;5017673;28;20025;-83
2022/10/05 06:25:10;;;;;;;3.58;2.55;;;13.90;99.90;;;;;;5043946;28;20032;-82
2022/10/05 06:27:56;;;;;;;3.35;2.88;;;13.90;99.90;;;;;;5025229;28;20513;-82
2022/10/05 06:30:25;;;;;;;4.78;2.45;;;13.90;99.90;;;;;;5041322;28;20106;-82
2022/10/05 06:33:28;;;;;;;4.68;2.40;;;13.90;99.90;;;;;;5042866;28;20037;-82
2022/10/05 06:36:11;;;;;;;4.57;2.70;;;13.90;99.90;;;;;;5043090;28;20108;-82
2022/10/05 06:39:09;;;;;;;4.05;3.03;;;13.90;99.90;;;;;;5043031;28;20043;-82
2022/10/05 06:42:12;;;;;;;5.38;3.88;;;13.90;99.90;;;;;;5027864;28;20120;-82
2022/10/05 06:45:19;;;;;;;4.90;3.70;;;13.90;99.90;;;;;;5023785;28;20501;-82
2022/10/05 06:48:14;;;;;;;5.00;3.83;;;13.90;99.90;;;;;;5011373;28;20025;-85
2022/10/05 06:51:08;;;;;;;5.88;3.92;;;13.90;99.90;;;;;;5012191;28;20028;-82
2022/10/05 06:54:13;;;;;;;6.05;3.72;;;13.90;99.90;;;;;;5010916;28;20068;-82
2022/10/05 06:56:45;;;;;;;4.40;3.38;;;13.90;99.90;;;;;;5006384;28;20041;-81
2022/10/05 06:59:22;;;;;;;6.07;4.63;;;14.00;99.90;;;;;;5025687;28;20091;-81
2022/10/05 07:02:36;;;;;;;5.93;3.53;;;13.90;99.90;;;;;;5026638;28;20120;-83
2022/10/05 07:05:27;;;;;;;5.65;2.85;;;14.00;99.90;;;;;;5020081;28;20033;-83
2022/10/05 07:07:53;;;;;;;6.97;3.55;;;14.00;99.90;;;;;;5031891;28;20088;-84
2022/10/05 07:10:37;;;;;;;4.75;2.95;;;14.10;99.90;;;;;;5010234;28;20486;-83
2022/10/05 07:13:42;;;;;;;3.10;2.50;;;14.10;99.90;;;;;;5015947;28;20031;-81
2022/10/05 07:16:17;;;;;;;4.03;2.67;;;14.10;99.90;;;;;;5041334;28;20022;-83
2022/10/05 07:19:06;;;;;;;3.47;2.17;;;14.10;99.90;;;;;;5041497;28;20175;-83
2022/10/05 07:21:44;;;;;;;2.80;1.83;;;14.20;99.90;;;;;;5024608;28;20026;-82
2022/10/05 07:24:22;;;;;;;2.55;1.75;;;14.20;99.90;;;;;;5006888;28;20124;-83
2022/10/05 07:27:18;;;;;;;5.60;2.30;;;14.20;99.90;;;;;;5025454;28;20048;-82
2022/10/05 07:30:11;;;;;;;3.13;2.17;;;14.30;99.90;;;;;;5040969;28;20057;-81
2022/10/05 07:33:08;;;;;;;2.85;1.45;;;14.30;99.90;;;;;;5026046;28;20080;-82
2022/10/05 07:38:52;;;;;;;2.63;0.98;;;14.30;99.90;;;;;;5026367;28;20265;-83
2022/10/05 07:41:29;;;;;;;2.40;1.40;;;14.40;99.90;;;;;;5008433;28;20159;-84
2022/10/05 07:44:32;;;;;;;2.65;1.08;;;14.40;99.90;;;;;;5040392;28;20494;-83
2022/10/05 07:47:08;;;;;;;2.42;1.20;;;14.50;99.90;;;;;;5012952;28;20374;-83
2022/10/05 07:49:44;;;;;;;2.35;1.27;;;14.40;99.90;;;;;;5036756;28;20029;-83
2022/10/05 07:52:38;;;;;;;2.55;1.33;;;14.50;99.90;;;;;;5028965;28;20466;-83
2022/10/05 07:55:18;;;;;;;1.88;0.80;;;14.50;99.90;;;;;;5010182;28;20033;-83
2022/10/05 07:58:01;;;;;;;2.65;1.30;;;14.50;99.90;;;;;;5013435;28;20095;-83
2022/10/05 08:01:18;;;;;;;3.88;1.50;;;14.50;99.90;;;;;;5030080;28;20021;-83
2022/10/05 08:04:14;;;;;;;3.00;1.33;;;14.50;99.90;;;;;;5004554;28;20040;-82
2022/10/05 08:06:51;;;;;;;1.95;0.98;;;14.60;99.90;;;;;;5030330;28;20030;-83
2022/10/05 08:09:34;;;;;;;3.15;1.00;;;14.70;99.90;;;;;;5029253;28;20033;-83
2022/10/05 08:12:18;;;;;;;2.45;1.35;;;14.80;99.90;;;;;;5029534;28;20077;-83
2022/10/05 08:14:51;;;;;;;2.95;1.10;;;14.80;99.90;;;;;;5044589;28;20121;-83
2022/10/05 08:17:37;;;;;;;3.22;1.33;;;14.90;99.90;;;;;;5012097;28;20042;-83
2022/10/05 08:20:20;;;;;;;3.97;0.93;;;15.00;99.90;;;;;;5029680;28;20030;-83
2022/10/05 08:23:12;;;;;;;2.53;1.13;;;15.10;99.90;;;;;;5045371;28;20398;-83
2022/10/05 08:25:42;;;;;;;1.77;0.90;;;15.20;99.90;;;;;;5008518;28;20208;-83
2022/10/05 08:28:11;;;;;;;;;;;15.30;99.90;;;;;;4992175;28;20096;-84
2022/10/05 08:30:53;;;;;;;3.25;1.02;;;15.30;99.90;;;;;;5008475;28;19936;-83
2022/10/05 08:33:20;;;;;;;2.80;0.95;;;15.30;99.90;;;;;;5006833;28;20108;-83
2022/10/05 08:35:59;;;;;;;1.90;1.00;;;15.40;99.90;;;;;;4991359;28;20121;-83
2022/10/05 08:38:31;;;;;;;2.03;0.95;;;15.50;99.90;;;;;;5008235;28;20509;-84
2022/10/05 08:41:06;;;;;;;2.10;1.00;;;15.60;99.90;;;;;;4991778;28;20030;-83
2022/10/05 08:43:56;;;;;;;2.65;1.02;;;15.60;99.90;;;;;;5007898;28;20046;-83
2022/10/05 08:46:32;;;;;;;3.13;1.40;;;15.70;99.90;;;;;;4990576;28;20048;-83
2022/10/05 08:49:41;;;;;;;2.13;1.13;;;15.70;99.90;;;;;;4991266;28;20042;-84
2022/10/05 08:52:43;;;;;;;2.78;1.25;;;15.80;99.90;;;;;;5007686;28;20029;-83
2022/10/05 08:55:09;;;;;;;2.63;1.42;;;15.90;99.90;;;;;;5007294;28;20029;-83
2022/10/05 08:57:46;;;;;;;4.00;1.33;;;16.00;99.90;;;;;;4991413;28;20515;-82
2022/10/05 09:00:16;;;;;;;2.63;1.33;;;16.00;99.90;;;;;;5006338;28;20021;-83
2022/10/05 09:02:56;;;;;;;3.15;1.92;;;16.20;99.90;;;;;;5008931;28;20486;-83
2022/10/05 09:05:46;;;;;;;2.83;1.10;;;16.20;99.90;;;;;;5029420;28;20057;-83
2022/10/05 09:08:50;;;;;;;3.55;1.10;;;16.30;99.90;;;;;;5027891;28;20036;-83
2022/10/05 09:11:34;;;;;;;5.00;1.15;;;16.40;99.90;;;;;;5024599;28;20026;-84
2022/10/05 09:14:38;;;;;;;2.10;1.00;;;16.40;99.90;;;;;;5028424;28;20116;-83
2022/10/05 09:17:28;;;;;;;1.77;1.05;;;16.50;99.90;;;;;;5025852;28;20493;-83
2022/10/05 09:20:08;;;;;;;3.72;1.30;;;16.50;99.90;;;;;;5028110;28;20474;-84
2022/10/05 09:22:39;;;;;;;;;;;16.50;99.90;;;;;;5028124;28;20045;-84
2022/10/05 09:25:20;;;;;;;4.50;1.10;;;16.60;99.90;;;;;;5007409;28;20366;-83
2022/10/05 09:27:56;;;;;;;5.43;1.13;;;16.70;99.90;;;;;;5028159;28;20025;-83
2022/10/05 09:30:31;;;;;;;1.63;0.60;;;16.70;99.90;;;;;;5028039;28;20035;-84
2022/10/05 09:33:22;;;;;;;1.58;0.60;;;16.90;99.90;;;;;;5027236;28;20017;-83
2022/10/05 09:36:17;;;;;;;2.35;0.73;;;17.00;99.90;;;;;;5028116;28;20121;-83
2022/10/05 09:38:49;;;;;;;1.77;0.40;;;17.20;99.90;;;;;;5026706;28;20122;-83
2022/10/05 09:41:29;;;;;;;2.55;0.73;;;17.40;99.90;;;;;;5029402;28;20599;-81
2022/10/05 09:44:00;;;;;;;1.27;0.60;;;17.50;99.90;;;;;;5028531;28;20037;-80
2022/10/05 09:46:36;;;;;;;1.80;0.70;;;17.40;99.90;;;;;;5026778;28;20021;-82
2022/10/05 09:49:34;;;;;;;2.80;0.70;;;17.50;99.90;;;;;;5027932;28;20040;-83
2022/10/05 09:52:25;;;;;;;2.30;0.85;;;17.60;99.90;;;;;;5027956;28;20053;-80
2022/10/05 09:54:55;;;;;;;1.58;0.50;;;17.50;99.90;;;;;;5028923;28;20087;-82
2022/10/05 09:57:39;;;;;;;2.13;0.70;;;17.70;99.90;;;;;;5026929;28;20037;-82
2022/10/05 10:00:47;;;;;;;3.50;0.90;;;17.90;99.90;;;;;;5027433;28;20030;-85
2022/10/05 10:03:38;;;;;;;2.35;0.90;;;17.90;99.90;;;;;;5025516;28;20037;-83
2022/10/05 10:06:34;;;;;;;1.80;0.70;;;17.90;99.90;;;;;;5028103;28;20018;-82
2022/10/05 10:09:24;;;;;;;2.10;0.80;;;17.90;99.90;;;;;;5026565;28;20047;-84
2022/10/05 10:12:03;;;;;;;1.80;0.40;;;17.80;99.90;;;;;;5029084;28;20027;-81
2022/10/05 10:15:01;;;;;;;4.43;1.00;;;18.00;99.90;;;;;;5026771;28;20030;-80
2022/10/05 10:17:39;;;;;;;2.22;0.70;;;17.90;99.90;;;;;;5025571;28;20092;-83
2022/10/05 10:20:12;;;;;;;1.35;0.50;;;17.70;99.90;;;;;;5027212;28;20034;-82
2022/10/05 10:22:44;;;;;;;2.38;1.00;;;17.90;99.90;;;;;;5027842;28;20035;-85
2022/10/05 10:25:26;;;;;;;2.42;0.60;;;18.00;99.90;;;;;;5026062;28;20026;-82
2022/10/05 10:28:18;;;;;;;2.90;0.80;;;18.00;99.90;;;;;;5027874;28;20018;-82
2022/10/05 10:30:59;;;;;;;1.35;0.50;;;18.30;99.90;;;;;;5028440;28;20025;-84
2022/10/05 10:33:36;;;;;;;2.15;0.60;;;18.50;99.90;;;;;;5026747;28;20438;-84
2022/10/05 10:36:43;;;;;;;2.03;0.60;;;18.60;99.90;;;;;;5027839;28;20052;-84
2022/10/05 10:39:44;;;;;;;2.58;0.98;;;18.40;99.90;;;;;;5027103;28;20107;-84
2022/10/05 10:42:15;;;;;;;1.80;0.60;;;18.40;99.90;;;;;;5027154;28;20045;-84
2022/10/05 10:45:00;;;;;;;1.52;0.50;;;18.80;99.90;;;;;;5028499;28;20041;-84
2022/10/05 10:47:47;;;;;;;1.40;0.50;;;18.80;99.90;;;;;;5027264;28;20052;-83
2022/10/05 10:50:51;;;;;;;1.45;0.50;;;18.90;99.90;;;;;;5028157;28;20484;-84
2022/10/05 10:53:38;;;;;;;1.55;0.70;;;18.80;99.90;;;;;;5027262;28;20029;-84
2022/10/05 10:56:22;;;;;;;1.50;0.60;;;18.50;99.90;;;;;;5041919;28;20438;-82
2022/10/05 10:59:32;;;;;;;1.98;0.45;;;18.40;99.90;;;;;;5027018;28;20041;-83
2022/10/05 11:02:16;;;;;;;;;;;18.70;99.90;;;;;;4973024;28;20403;-83
2022/10/05 11:05:40;;;;;;;3.15;0.65;;;18.60;99.90;;;;;;4989267;28;19916;-83
2022/10/05 11:08:11;;;;;;;3.47;0.60;;;18.50;99.90;;;;;;4910422;29;20024;-83
2022/10/05 11:11:13;;;;;;;1.30;0.60;;;18.50;99.90;;;;;;4910693;29;20039;-82
2022/10/05 11:13:55;;;;;;;0.93;0.40;;;18.60;99.90;;;;;;4909670;29;20096;-80
2022/10/05 11:17:07;;;;;;;1.95;0.60;;;18.40;99.90;;;;;;4908397;29;20094;-84
2022/10/05 11:20:01;;;;;;;1.33;0.40;;;18.40;99.90;;;;;;4860510;29;20064;-82
2022/10/05 11:22:29;;;;;;;2.40;0.70;;;18.50;99.90;;;;;;4908969;29;20441;-83
2022/10/05 11:25:29;;;;;;;1.05;0.40;;;18.50;99.90;;;;;;4912685;29;20091;-84
2022/10/05 11:28:20;;;;;;;1.52;0.50;;;18.70;99.90;;;;;;4910924;29;20030;-84
2022/10/05 11:30:54;;;;;;;2.08;0.50;;;18.60;99.90;;;;;;4906835;29;20036;-82
2022/10/05 11:33:59;;;;;;;2.92;0.60;;;18.50;99.90;;;;;;4908411;29;20048;-84
2022/10/05 11:37:02;;;;;;;2.47;0.57;;;18.50;99.90;;;;;;4908212;29;20044;-85
2022/10/05 11:39:36;;;;;;;1.02;0.40;;;18.50;99.90;;;;;;4941684;28;20074;-83
2022/10/05 11:42:11;;;;;;;1.67;0.50;;;18.60;99.90;;;;;;4972187;28;20051;-82
2022/10/05 11:44:46;;;;;;;2.03;0.40;;;18.70;99.90;;;;;;4950560;28;20070;-82
2022/10/05 11:47:11;;;;;;;2.72;0.40;;;18.60;99.90;;;;;;4972133;28;20110;-83
2022/10/05 11:50:04;;;;;;;1.10;0.50;;;18.70;99.90;;;;;;4954834;28;20586;-80
2022/10/05 11:52:43;;;;;;;4.55;0.77;;;18.60;99.90;;;;;;4972003;28;20031;-83
2022/10/05 11:55:22;;;;;;;3.17;0.50;;;18.60;99.90;;;;;;4971661;28;20137;-81
2022/10/05 11:57:57;;;;;;;1.92;0.40;;;18.70;99.90;;;;;;4975011;28;20154;-83
2022/10/05 12:00:42;;;;;;;1.30;0.45;;;18.80;99.90;;;;;;4974514;28;20093;-83
2022/10/05 12:03:24;;;;;;;3.20;0.50;;;18.70;99.90;;;;;;4971079;28;20045;-81
2022/10/05 12:06:07;;;;;;;1.98;0.40;;;18.60;99.90;;;;;;4971826;28;20037;-83
2022/10/05 12:08:44;;;;;;;0.90;0.30;;;18.70;99.90;;;;;;4971115;28;20039;-82
2022/10/05 12:11:48;;;;;;;3.25;0.40;;;18.90;99.90;;;;;;4954966;28;20415;-84
2022/10/05 12:14:36;;;;;;;1.38;0.45;;;19.00;99.90;;;;;;4963541;28;20443;-83
2022/10/05 12:17:05;;;;;;;1.00;0.30;;;19.00;99.90;;;;;;5041850;28;20042;-84
2022/10/05 12:19:39;;;;;;;2.05;0.40;;;19.20;99.90;;;;;;5025005;28;20049;-82
2022/10/05 12:22:19;;;;;;;4.18;0.45;;;19.20;99.90;;;;;;5027176;28;20049;-81
2022/10/05 12:24:54;;;;;;;1.20;0.30;;;19.20;99.90;;;;;;5025134;28;20034;-83
2022/10/05 12:27:25;;;;;;;1.23;0.43;;;19.20;99.90;;;;;;5026525;28;20029;-83
2022/10/05 12:30:23;;;;;;;1.00;0.40;;;19.20;99.90;;;;;;5023537;28;20026;-81
2022/10/05 12:32:58;;;;;;;1.38;0.40;;;19.20;99.90;;;;;;5028788;28;20075;-82
2022/10/05 12:35:36;;;;;;;0.77;0.30;;;19.30;99.90;;;;;;5028163;28;20111;-82
2022/10/05 12:38:27;;;;;;;1.98;0.35;;;19.50;99.90;;;;;;5028074;28;20087;-83
2022/10/05 12:41:20;;;;;;;1.70;0.50;;;19.50;99.90;;;;;;5029915;28;20064;-83
2022/10/05 12:44:17;;;;;;;1.35;0.40;;;19.70;99.90;;;;;;5029995;28;20544;-83
2022/10/05 12:47:03;;;;;;;2.42;0.40;;;20.00;99.90;;;;;;5028179;28;20596;-82
2022/10/05 12:49:48;;;;;;;1.33;0.30;;;20.10;99.90;;;;;;5029569;28;20491;-83
2022/10/05 12:52:51;;;;;;;1.48;0.40;;;20.20;99.90;;;;;;5029339;28;20088;-83
2022/10/05 12:55:29;;;;;;;1.75;0.30;;;20.10;99.90;;;;;;5029046;28;20032;-83
2022/10/05 12:58:12;;;;;;;3.45;0.30;;;19.90;99.90;;;;;;5028852;28;20137;-82
2022/10/05 13:00:47;;;;;;;3.15;0.70;;;20.10;99.90;;;;;;5011806;28;20466;-82
2022/10/05 13:03:28;;;;;;;1.17;0.38;;;20.20;99.90;;;;;;5042702;28;20070;-83
2022/10/05 13:06:29;;;;;;;1.02;0.30;;;20.10;99.90;;;;;;5028819;28;20063;-84
2022/10/05 13:09:02;;;;;;;2.90;0.55;;;20.00;99.90;;;;;;5021354;28;20041;-83
2022/10/05 13:11:37;;;;;;;1.25;0.20;;;20.00;99.90;;;;;;5011072;28;20348;-83
2022/10/05 13:14:24;;;;;;;1.63;0.40;;;20.10;99.90;;;;;;5028639;28;20021;-81
2022/10/05 13:16:58;;;;;;;1.25;0.40;;;20.20;99.90;;;;;;5027378;28;20092;-86
2022/10/05 13:19:26;;;;;;;0.85;0.30;;;20.30;99.90;;;;;;5028660;28;20033;-85
2022/10/05 13:22:15;;;;;;;0.95;0.20;;;20.40;99.90;;;;;;5027418;28;20029;-84
2022/10/05 13:24:52;;;;;;;1.33;0.30;;;20.50;99.90;;;;;;5044057;28;20103;-85
2022/10/05 13:27:23;;;;;;;0.95;0.30;;;20.40;99.90;;;;;;5027457;28;20401;-84
2022/10/05 13:29:51;;;;;;;2.00;0.40;;;20.50;99.90;;;;;;5028263;28;20026;-85
2022/10/05 13:32:24;;;;;;;1.00;0.30;;;20.40;99.90;;;;;;5027903;28;20083;-83
2022/10/05 13:34:56;;;;;;;0.90;0.30;;;20.30;99.90;;;;;;5044578;28;20029;-83
2022/10/05 13:37:42;;;;;;;2.60;0.30;;;20.50;99.90;;;;;;5028443;28;20037;-85
2022/10/05 13:40:27;;;;;;;1.95;0.30;;;20.40;99.90;;;;;;5028008;28;20029;-87
2022/10/05 13:43:10;;;;;;;1.20;0.32;;;20.60;99.90;;;;;;5027659;28;20037;-84
2022/10/05 13:45:51;;;;;;;1.00;0.30;;;20.80;99.90;;;;;;5005709;28;20022;-83
2022/10/05 13:48:26;;;;;;;1.02;0.30;;;20.70;99.90;;;;;;5010638;28;20544;-83
2022/10/05 13:51:23;;;;;;;1.52;0.20;;;20.80;99.90;;;;;;5029190;28;20032;-82
2022/10/05 13:54:04;;;;;;;1.48;0.20;;;20.90;99.90;;;;;;5027986;28;20037;-83
2022/10/05 13:56:38;;;;;;;1.50;0.20;;;20.80;99.90;;;;;;5010718;28;20029;-83
2022/10/05 13:59:28;;;;;;;3.08;0.25;;;20.90;99.90;;;;;;5027215;28;20037;-84
2022/10/05 14:02:05;;;;;;;;;;;20.80;99.90;;;;;;5028643;28;20048;-81
2022/10/05 14:04:50;;;;;;;2.10;0.20;;;21.00;99.90;;;;;;5043018;28;19913;-82
2022/10/05 14:07:32;;;;;;;2.08;0.20;;;20.80;99.90;;;;;;5028433;28;20061;-84
2022/10/05 14:09:58;;;;;;;0.45;0.20;;;20.80;99.90;;;;;;5027296;28;20485;-85
2022/10/05 14:12:26;;;;;;;1.27;0.20;;;20.90;99.90;;;;;;5028476;28;20034;-84
2022/10/05 14:14:54;;;;;;;1.48;0.20;;;20.90;99.90;;;;;;5043488;28;20440;-87